SVA596 OERK-OMDB
Flight info
| Callsign | SVA596 |
|---|---|
| Flight time | 1h 33m |
| Altitude | 41000 |
| Route | RAPMA Y214 KUTNA M440 KATIT DCT PEKEM M628 RIGIL G783 ASPED Q308 KIPOK Q568 IMPED |
| Aircraft | A333/H-SDE3GHIJ2J3J5M1RVWXY/LB2D1 |
Departure
| Time | 2026-05-05 12:46 |
|---|---|
| Airport | King Khalid International Airport (OERK) |
Arrival
| Time | 2026-05-05 14:19 |
|---|---|
| Airport | Dubai International Airport (OMDB) |
| Time | Latitude | Longitude | Altitude | Speed | Heading |
|---|---|---|---|---|---|
| 2026-05-05 12:29 | 24.96211 | 46.70291 | 2033 ft | 0 kts | 202° |
| 2026-05-05 12:33 | 24.96215 | 46.70293 | 2043 ft | 3 kts | 202° |
| 2026-05-05 12:33 | 24.96239 | 46.70305 | 2039 ft | 4 kts | 202° |
| 2026-05-05 12:33 | 24.96264 | 46.70316 | 2043 ft | 4 kts | 202° |
| 2026-05-05 12:33 | 24.96288 | 46.70327 | 2043 ft | 2 kts | 202° |
| 2026-05-05 12:34 | 24.96309 | 46.70336 | 2041 ft | 4 kts | 195° |
| 2026-05-05 12:34 | 24.96334 | 46.70344 | 2041 ft | 4 kts | 212° |
| 2026-05-05 12:34 | 24.96344 | 46.70362 | 2043 ft | 4 kts | 269° |
| 2026-05-05 12:34 | 24.96340 | 46.70389 | 2043 ft | 4 kts | 310° |
| 2026-05-05 12:35 | 24.96322 | 46.70404 | 2043 ft | 4 kts | 331° |
| 2026-05-05 12:35 | 24.96298 | 46.70419 | 2043 ft | 4 kts | 331° |
| 2026-05-05 12:35 | 24.96275 | 46.70432 | 2043 ft | 3 kts | 331° |
| 2026-05-05 12:35 | 24.96275 | 46.70433 | 2043 ft | 0 kts | 331° |
| 2026-05-05 12:38 | 24.96275 | 46.70432 | 2043 ft | 0 kts | 331° |
| 2026-05-05 12:38 | 24.96283 | 46.70428 | 2033 ft | 2 kts | 332° |
| 2026-05-05 12:39 | 24.96296 | 46.70420 | 2043 ft | 4 kts | 331° |
| 2026-05-05 12:39 | 24.96311 | 46.70411 | 2038 ft | 3 kts | 331° |
| 2026-05-05 12:39 | 24.96336 | 46.70396 | 2043 ft | 5 kts | 331° |
| 2026-05-05 12:39 | 24.96364 | 46.70399 | 2041 ft | 4 kts | 36° |
| 2026-05-05 12:40 | 24.96379 | 46.70425 | 2035 ft | 5 kts | 58° |
| 2026-05-05 12:40 | 24.96400 | 46.70463 | 2041 ft | 7 kts | 60° |
| 2026-05-05 12:40 | 24.96426 | 46.70514 | 2042 ft | 8 kts | 60° |
| 2026-05-05 12:40 | 24.96458 | 46.70575 | 2038 ft | 10 kts | 60° |
| 2026-05-05 12:41 | 24.96512 | 46.70598 | 2040 ft | 9 kts | 343° |
| 2026-05-05 12:41 | 24.96580 | 46.70558 | 2041 ft | 14 kts | 330° |
| 2026-05-05 12:41 | 24.96674 | 46.70499 | 2038 ft | 18 kts | 330° |
| 2026-05-05 12:41 | 24.96793 | 46.70423 | 2040 ft | 23 kts | 330° |
| 2026-05-05 12:42 | 24.96934 | 46.70332 | 2041 ft | 24 kts | 330° |
| 2026-05-05 12:42 | 24.97080 | 46.70241 | 2041 ft | 25 kts | 330° |
| 2026-05-05 12:42 | 24.97227 | 46.70148 | 2041 ft | 25 kts | 330° |
| 2026-05-05 12:42 | 24.97375 | 46.70055 | 2037 ft | 21 kts | 329° |
| 2026-05-05 12:43 | 24.97467 | 46.69996 | 2040 ft | 14 kts | 330° |
| 2026-05-05 12:43 | 24.97528 | 46.69965 | 2040 ft | 7 kts | 2° |
| 2026-05-05 12:43 | 24.97568 | 46.70017 | 2042 ft | 14 kts | 59° |
| 2026-05-05 12:43 | 24.97619 | 46.70112 | 2040 ft | 14 kts | 59° |
| 2026-05-05 12:44 | 24.97656 | 46.70181 | 2039 ft | 10 kts | 59° |
| 2026-05-05 12:44 | 24.97651 | 46.70225 | 2042 ft | 5 kts | 136° |
| 2026-05-05 12:44 | 24.97615 | 46.70246 | 2040 ft | 6 kts | 150° |
| 2026-05-05 12:44 | 24.97613 | 46.70247 | 2040 ft | 0 kts | 150° |
| 2026-05-05 12:45 | 24.97561 | 46.70279 | 2042 ft | 28 kts | 150° |
| 2026-05-05 12:45 | 24.97190 | 46.70516 | 2038 ft | 94 kts | 150° |
| 2026-05-05 12:45 | 24.96446 | 46.70985 | 2039 ft | 151 kts | 150° |
| 2026-05-05 12:46 | 24.95416 | 46.71653 | 2200 ft | 190 kts | 152° |
| 2026-05-05 12:46 | 24.94435 | 46.72724 | 2837 ft | 210 kts | 119° |
| 2026-05-05 12:46 | 24.93864 | 46.74225 | 3495 ft | 221 kts | 124° |
| 2026-05-05 12:46 | 24.92703 | 46.75397 | 3636 ft | 240 kts | 155° |
| 2026-05-05 12:47 | 24.91134 | 46.76249 | 3946 ft | 261 kts | 156° |
| 2026-05-05 12:47 | 24.89525 | 46.77229 | 4469 ft | 271 kts | 150° |
| 2026-05-05 12:47 | 24.87948 | 46.78395 | 5180 ft | 274 kts | 150° |
| 2026-05-05 12:47 | 24.86264 | 46.79391 | 5885 ft | 276 kts | 158° |
| 2026-05-05 12:48 | 24.84520 | 46.80302 | 6618 ft | 278 kts | 158° |
| 2026-05-05 12:48 | 24.82785 | 46.81265 | 7336 ft | 281 kts | 155° |
| 2026-05-05 12:48 | 24.81043 | 46.82277 | 8051 ft | 285 kts | 155° |
| 2026-05-05 12:48 | 24.79246 | 46.83207 | 8872 ft | 283 kts | 163° |
| 2026-05-05 12:49 | 24.77385 | 46.83810 | 9737 ft | 283 kts | 168° |
| 2026-05-05 12:49 | 24.75450 | 46.84335 | 10381 ft | 293 kts | 169° |
| 2026-05-05 12:49 | 24.73394 | 46.84874 | 10673 ft | 315 kts | 168° |
| 2026-05-05 12:49 | 24.71197 | 46.85469 | 10969 ft | 334 kts | 168° |
| 2026-05-05 12:50 | 24.68876 | 46.86112 | 11294 ft | 351 kts | 168° |
| 2026-05-05 12:50 | 24.66520 | 46.86764 | 11706 ft | 362 kts | 168° |
| 2026-05-05 12:50 | 24.64022 | 46.87465 | 12352 ft | 367 kts | 167° |
| 2026-05-05 12:50 | 24.61533 | 46.88323 | 13068 ft | 372 kts | 163° |
| 2026-05-05 12:51 | 24.59098 | 46.89245 | 13718 ft | 377 kts | 163° |
| 2026-05-05 12:51 | 24.56611 | 46.90200 | 14328 ft | 381 kts | 163° |
| 2026-05-05 12:51 | 24.54083 | 46.91171 | 14909 ft | 387 kts | 163° |
| 2026-05-05 12:51 | 24.51526 | 46.92150 | 15487 ft | 392 kts | 163° |
| 2026-05-05 12:52 | 24.48933 | 46.93140 | 16056 ft | 397 kts | 163° |
| 2026-05-05 12:52 | 24.46308 | 46.94141 | 16645 ft | 401 kts | 163° |
| 2026-05-05 12:52 | 24.43654 | 46.95152 | 17238 ft | 406 kts | 163° |
| 2026-05-05 12:52 | 24.40970 | 46.96174 | 17801 ft | 410 kts | 164° |
| 2026-05-05 12:53 | 24.38263 | 46.97203 | 18342 ft | 415 kts | 164° |
| 2026-05-05 12:53 | 24.35515 | 46.98247 | 18811 ft | 419 kts | 164° |
| 2026-05-05 12:53 | 24.32751 | 46.99298 | 19350 ft | 421 kts | 164° |
| 2026-05-05 12:53 | 24.29986 | 47.00348 | 19879 ft | 423 kts | 164° |
| 2026-05-05 12:54 | 24.24544 | 47.02414 | 20890 ft | 428 kts | 164° |
| 2026-05-05 12:54 | 24.21720 | 47.03485 | 21393 ft | 430 kts | 163° |
| 2026-05-05 12:54 | 24.18878 | 47.04562 | 21896 ft | 433 kts | 163° |
| 2026-05-05 12:55 | 24.16016 | 47.05646 | 22382 ft | 436 kts | 163° |
| 2026-05-05 12:55 | 24.13142 | 47.06756 | 22840 ft | 440 kts | 161° |
| 2026-05-05 12:55 | 24.10344 | 47.08166 | 23334 ft | 446 kts | 154° |
| 2026-05-05 12:55 | 24.07667 | 47.09902 | 23735 ft | 450 kts | 150° |
| 2026-05-05 12:56 | 24.04996 | 47.11734 | 24099 ft | 454 kts | 150° |
| 2026-05-05 12:56 | 24.02314 | 47.13586 | 24458 ft | 457 kts | 150° |
| 2026-05-05 12:56 | 23.99608 | 47.15450 | 24825 ft | 460 kts | 151° |
| 2026-05-05 12:56 | 23.96888 | 47.17319 | 25205 ft | 463 kts | 151° |
| 2026-05-05 12:57 | 23.94178 | 47.19178 | 25563 ft | 467 kts | 151° |
| 2026-05-05 12:57 | 23.91413 | 47.21071 | 25928 ft | 470 kts | 152° |
| 2026-05-05 12:57 | 23.88624 | 47.22979 | 26282 ft | 474 kts | 152° |
| 2026-05-05 12:57 | 23.85822 | 47.24894 | 26643 ft | 477 kts | 152° |
| 2026-05-05 12:58 | 23.82998 | 47.26824 | 27004 ft | 480 kts | 152° |
| 2026-05-05 12:58 | 23.80160 | 47.28761 | 27364 ft | 483 kts | 152° |
| 2026-05-05 12:58 | 23.77298 | 47.30714 | 27682 ft | 486 kts | 152° |
| 2026-05-05 12:58 | 23.74430 | 47.32671 | 28032 ft | 489 kts | 152° |
| 2026-05-05 12:59 | 23.71539 | 47.34641 | 28365 ft | 492 kts | 153° |
| 2026-05-05 12:59 | 23.68628 | 47.36625 | 28706 ft | 495 kts | 153° |
| 2026-05-05 12:59 | 23.65695 | 47.38622 | 29033 ft | 498 kts | 153° |
| 2026-05-05 13:00 | 23.59776 | 47.42648 | 29630 ft | 504 kts | 153° |
| 2026-05-05 13:00 | 23.56796 | 47.44675 | 29970 ft | 505 kts | 153° |
| 2026-05-05 13:01 | 23.48849 | 47.52282 | 31000 ft | 522 kts | 128° |
| 2026-05-05 13:01 | 23.47050 | 47.55743 | 31422 ft | 527 kts | 117° |
| 2026-05-05 13:01 | 23.45847 | 47.59525 | 31811 ft | 532 kts | 107° |
| 2026-05-05 13:01 | 23.45231 | 47.63510 | 32214 ft | 534 kts | 99° |
| 2026-05-05 13:02 | 23.44831 | 47.67522 | 32590 ft | 533 kts | 98° |
| 2026-05-05 13:02 | 23.44458 | 47.71538 | 33064 ft | 530 kts | 98° |
| 2026-05-05 13:02 | 23.44084 | 47.75521 | 33503 ft | 528 kts | 98° |
| 2026-05-05 13:02 | 23.43700 | 47.79520 | 33864 ft | 528 kts | 99° |
| 2026-05-05 13:03 | 23.43314 | 47.83483 | 34189 ft | 527 kts | 99° |
| 2026-05-05 13:03 | 23.42922 | 47.87461 | 34523 ft | 526 kts | 99° |
| 2026-05-05 13:03 | 23.42529 | 47.91423 | 34834 ft | 526 kts | 99° |
| 2026-05-05 13:03 | 23.42135 | 47.95376 | 35151 ft | 525 kts | 99° |
| 2026-05-05 13:04 | 23.41745 | 47.99278 | 35478 ft | 524 kts | 99° |
| 2026-05-05 13:04 | 23.41349 | 48.03220 | 35788 ft | 524 kts | 99° |
| 2026-05-05 13:04 | 23.40947 | 48.07219 | 36090 ft | 524 kts | 99° |
| 2026-05-05 13:04 | 23.40555 | 48.11102 | 36387 ft | 523 kts | 99° |
| 2026-05-05 13:05 | 23.40421 | 48.12431 | 36500 ft | 523 kts | 99° |
| 2026-05-05 13:05 | 23.39913 | 48.17441 | 36724 ft | 524 kts | 99° |
| 2026-05-05 13:06 | 23.39104 | 48.25323 | 36735 ft | 522 kts | 99° |
| 2026-05-05 13:06 | 23.38342 | 48.31782 | 36735 ft | 519 kts | 101° |
| 2026-05-05 13:07 | 23.37370 | 48.39562 | 36727 ft | 518 kts | 101° |
| 2026-05-05 13:07 | 23.36407 | 48.47343 | 36726 ft | 519 kts | 101° |
| 2026-05-05 13:08 | 23.35462 | 48.55074 | 36731 ft | 519 kts | 100° |
| 2026-05-05 13:08 | 23.34514 | 48.62857 | 36720 ft | 519 kts | 100° |
| 2026-05-05 13:09 | 23.33564 | 48.70636 | 36727 ft | 518 kts | 100° |
| 2026-05-05 13:09 | 23.32610 | 48.78404 | 36713 ft | 518 kts | 100° |
| 2026-05-05 13:10 | 23.31651 | 48.86172 | 36717 ft | 517 kts | 100° |
| 2026-05-05 13:10 | 23.30692 | 48.93913 | 36716 ft | 516 kts | 100° |
| 2026-05-05 13:11 | 23.29729 | 49.01650 | 36706 ft | 516 kts | 100° |
| 2026-05-05 13:11 | 23.28762 | 49.09385 | 36707 ft | 516 kts | 100° |
| 2026-05-05 13:12 | 23.27798 | 49.17070 | 36709 ft | 516 kts | 100° |
| 2026-05-05 13:12 | 23.26823 | 49.24807 | 36711 ft | 516 kts | 100° |
| 2026-05-05 13:13 | 23.25845 | 49.32541 | 36706 ft | 516 kts | 101° |
| 2026-05-05 13:13 | 23.24863 | 49.40277 | 36708 ft | 515 kts | 100° |
| 2026-05-05 13:14 | 23.23881 | 49.47982 | 36708 ft | 514 kts | 100° |
| 2026-05-05 13:14 | 23.22895 | 49.55688 | 36710 ft | 514 kts | 100° |
| 2026-05-05 13:15 | 23.21904 | 49.63394 | 36712 ft | 515 kts | 100° |
| 2026-05-05 13:15 | 23.20914 | 49.71063 | 36710 ft | 515 kts | 100° |
| 2026-05-05 13:16 | 23.19915 | 49.78770 | 36714 ft | 515 kts | 100° |
| 2026-05-05 13:16 | 23.18911 | 49.86488 | 36715 ft | 516 kts | 100° |
| 2026-05-05 13:17 | 23.17903 | 49.94204 | 36716 ft | 515 kts | 100° |
| 2026-05-05 13:17 | 23.16896 | 50.01893 | 36717 ft | 513 kts | 100° |
| 2026-05-05 13:18 | 23.15890 | 50.09533 | 36719 ft | 513 kts | 100° |
| 2026-05-05 13:18 | 23.14876 | 50.17202 | 36719 ft | 513 kts | 100° |
| 2026-05-05 13:19 | 23.13856 | 50.24883 | 36720 ft | 513 kts | 100° |
| 2026-05-05 13:19 | 23.12832 | 50.32575 | 36720 ft | 513 kts | 100° |
| 2026-05-05 13:20 | 23.11807 | 50.40244 | 36723 ft | 513 kts | 100° |
| 2026-05-05 13:20 | 23.10778 | 50.47912 | 36718 ft | 513 kts | 100° |
| 2026-05-05 13:21 | 23.09753 | 50.55521 | 36722 ft | 512 kts | 100° |
| 2026-05-05 13:21 | 23.08719 | 50.63172 | 36720 ft | 512 kts | 100° |
| 2026-05-05 13:22 | 23.07682 | 50.70812 | 36717 ft | 512 kts | 100° |
| 2026-05-05 13:22 | 23.06640 | 50.78466 | 36719 ft | 512 kts | 100° |
| 2026-05-05 13:23 | 23.05593 | 50.86118 | 36720 ft | 512 kts | 100° |
| 2026-05-05 13:23 | 23.04544 | 50.93771 | 36719 ft | 512 kts | 100° |
| 2026-05-05 13:24 | 23.03489 | 51.01431 | 36723 ft | 512 kts | 101° |
| 2026-05-05 13:24 | 23.02439 | 51.09029 | 36720 ft | 512 kts | 100° |
| 2026-05-05 13:25 | 23.01380 | 51.16671 | 36723 ft | 511 kts | 100° |
| 2026-05-05 13:25 | 23.00320 | 51.24290 | 36721 ft | 510 kts | 101° |
| 2026-05-05 13:26 | 22.99437 | 51.30616 | 36721 ft | 510 kts | 101° |
| 2026-05-05 13:26 | 22.98368 | 51.38248 | 36721 ft | 511 kts | 101° |
| 2026-05-05 13:27 | 22.97297 | 51.45870 | 36722 ft | 511 kts | 101° |
| 2026-05-05 13:27 | 22.96223 | 51.53490 | 36722 ft | 511 kts | 101° |
| 2026-05-05 13:28 | 22.95146 | 51.61105 | 36720 ft | 511 kts | 101° |
| 2026-05-05 13:28 | 22.94064 | 51.68725 | 36721 ft | 511 kts | 101° |
| 2026-05-05 13:29 | 22.92978 | 51.76343 | 36721 ft | 511 kts | 101° |
| 2026-05-05 13:29 | 22.91890 | 51.83956 | 36720 ft | 511 kts | 101° |
| 2026-05-05 13:30 | 22.90803 | 51.91529 | 36720 ft | 511 kts | 101° |
| 2026-05-05 13:30 | 22.89705 | 51.99156 | 36724 ft | 511 kts | 101° |
| 2026-05-05 13:31 | 22.88603 | 52.06784 | 36721 ft | 511 kts | 101° |
| 2026-05-05 13:31 | 22.87497 | 52.14408 | 36722 ft | 512 kts | 101° |
| 2026-05-05 13:32 | 22.86394 | 52.21990 | 36729 ft | 512 kts | 101° |
| 2026-05-05 13:32 | 22.85282 | 52.29610 | 36724 ft | 511 kts | 101° |
| 2026-05-05 13:33 | 22.84166 | 52.37230 | 36721 ft | 511 kts | 101° |
| 2026-05-05 13:33 | 22.83047 | 52.44840 | 36724 ft | 511 kts | 101° |
| 2026-05-05 13:34 | 22.82372 | 52.52525 | 36719 ft | 513 kts | 94° |
| 2026-05-05 13:34 | 22.82116 | 52.60250 | 36719 ft | 514 kts | 92° |
| 2026-05-05 13:35 | 22.81933 | 52.67961 | 36725 ft | 514 kts | 92° |
| 2026-05-05 13:35 | 22.81747 | 52.75708 | 36724 ft | 514 kts | 92° |
| 2026-05-05 13:36 | 22.81546 | 52.83458 | 36715 ft | 514 kts | 93° |
| 2026-05-05 13:36 | 22.81335 | 52.91205 | 36721 ft | 514 kts | 93° |
| 2026-05-05 13:37 | 22.81119 | 52.98951 | 36717 ft | 514 kts | 93° |
| 2026-05-05 13:37 | 22.80899 | 53.06705 | 36715 ft | 514 kts | 93° |
| 2026-05-05 13:38 | 22.80677 | 53.14440 | 36720 ft | 513 kts | 93° |
| 2026-05-05 13:38 | 22.80451 | 53.22176 | 36713 ft | 513 kts | 93° |
| 2026-05-05 13:39 | 22.80223 | 53.29857 | 36712 ft | 513 kts | 93° |
| 2026-05-05 13:39 | 22.79989 | 53.37589 | 36718 ft | 513 kts | 93° |
| 2026-05-05 13:40 | 22.79753 | 53.45323 | 36710 ft | 513 kts | 93° |
| 2026-05-05 13:40 | 22.79511 | 53.53068 | 36717 ft | 513 kts | 93° |
| 2026-05-05 13:41 | 22.79267 | 53.60795 | 36712 ft | 513 kts | 93° |
| 2026-05-05 13:41 | 22.79018 | 53.68544 | 36714 ft | 513 kts | 93° |
| 2026-05-05 13:42 | 22.78768 | 53.76228 | 36708 ft | 513 kts | 93° |
| 2026-05-05 13:42 | 22.78513 | 53.83955 | 36715 ft | 513 kts | 93° |
| 2026-05-05 13:43 | 22.78254 | 53.91683 | 36709 ft | 512 kts | 93° |
| 2026-05-05 13:43 | 22.78243 | 53.99400 | 36702 ft | 512 kts | 84° |
| 2026-05-05 13:44 | 22.79476 | 54.07004 | 36717 ft | 512 kts | 78° |
| 2026-05-05 13:44 | 22.80986 | 54.14497 | 36714 ft | 513 kts | 77° |
| 2026-05-05 13:45 | 22.82556 | 54.22031 | 36702 ft | 513 kts | 77° |
| 2026-05-05 13:45 | 22.84107 | 54.29579 | 36713 ft | 513 kts | 77° |
| 2026-05-05 13:46 | 22.85639 | 54.37131 | 36719 ft | 513 kts | 78° |
| 2026-05-05 13:46 | 22.87164 | 54.44705 | 36703 ft | 513 kts | 78° |
| 2026-05-05 13:47 | 22.88683 | 54.52263 | 36712 ft | 513 kts | 78° |
| 2026-05-05 13:47 | 22.90199 | 54.59824 | 36711 ft | 513 kts | 78° |
| 2026-05-05 13:48 | 22.91704 | 54.67349 | 36700 ft | 513 kts | 78° |
| 2026-05-05 13:48 | 22.93216 | 54.74930 | 36714 ft | 513 kts | 78° |
| 2026-05-05 13:49 | 22.94724 | 54.82505 | 36718 ft | 513 kts | 78° |
| 2026-05-05 13:49 | 22.96227 | 54.90080 | 36716 ft | 513 kts | 78° |
| 2026-05-05 13:50 | 22.97728 | 54.97661 | 36710 ft | 513 kts | 78° |
| 2026-05-05 13:50 | 22.99225 | 55.05243 | 36699 ft | 513 kts | 78° |
| 2026-05-05 13:51 | 23.00828 | 55.12787 | 36712 ft | 513 kts | 72° |
| 2026-05-05 13:51 | 23.03953 | 55.19650 | 36694 ft | 509 kts | 52° |
| 2026-05-05 13:52 | 23.06268 | 55.22532 | 36714 ft | 506 kts | 41° |
| 2026-05-05 13:52 | 23.09019 | 55.24905 | 36699 ft | 502 kts | 30° |
| 2026-05-05 13:52 | 23.12095 | 55.26678 | 36714 ft | 498 kts | 19° |
| 2026-05-05 13:52 | 23.15352 | 55.27903 | 36707 ft | 495 kts | 13° |
| 2026-05-05 13:53 | 23.21992 | 55.29920 | 36709 ft | 495 kts | 11° |
| 2026-05-05 13:53 | 23.28621 | 55.31787 | 36710 ft | 495 kts | 11° |
| 2026-05-05 13:54 | 23.35287 | 55.33701 | 36709 ft | 495 kts | 11° |
| 2026-05-05 13:54 | 23.41950 | 55.35656 | 36711 ft | 496 kts | 12° |
| 2026-05-05 13:55 | 23.48612 | 55.37628 | 36711 ft | 496 kts | 11° |
| 2026-05-05 13:55 | 23.55266 | 55.39600 | 36711 ft | 495 kts | 11° |
| 2026-05-05 13:56 | 23.61930 | 55.41573 | 36709 ft | 495 kts | 11° |
| 2026-05-05 13:56 | 23.68541 | 55.43531 | 36581 ft | 495 kts | 11° |
| 2026-05-05 13:57 | 23.71861 | 55.44515 | 36348 ft | 495 kts | 11° |
| 2026-05-05 13:57 | 23.75183 | 55.45501 | 36101 ft | 494 kts | 11° |
| 2026-05-05 13:57 | 23.78506 | 55.46487 | 35853 ft | 494 kts | 11° |
| 2026-05-05 13:57 | 23.81826 | 55.47473 | 35642 ft | 494 kts | 11° |
| 2026-05-05 13:58 | 23.85151 | 55.48462 | 35395 ft | 494 kts | 11° |
| 2026-05-05 13:58 | 23.88469 | 55.49447 | 35157 ft | 494 kts | 11° |
| 2026-05-05 13:58 | 23.91789 | 55.50433 | 34926 ft | 494 kts | 11° |
| 2026-05-05 13:58 | 23.95111 | 55.51419 | 34707 ft | 494 kts | 11° |
| 2026-05-05 13:59 | 24.01522 | 55.54181 | 34181 ft | 502 kts | 28° |
| 2026-05-05 13:59 | 24.04358 | 55.56456 | 33407 ft | 508 kts | 35° |
| 2026-05-05 14:00 | 24.09732 | 55.61542 | 31449 ft | 519 kts | 39° |
| 2026-05-05 14:00 | 24.11533 | 55.63359 | 30785 ft | 522 kts | 40° |
| 2026-05-05 14:00 | 24.15080 | 55.66970 | 29444 ft | 527 kts | 40° |
| 2026-05-05 14:00 | 24.17755 | 55.69687 | 28772 ft | 521 kts | 40° |
| 2026-05-05 14:01 | 24.20403 | 55.72360 | 28096 ft | 514 kts | 40° |
| 2026-05-05 14:01 | 24.23025 | 55.74989 | 27420 ft | 508 kts | 40° |
| 2026-05-05 14:01 | 24.25632 | 55.77591 | 26740 ft | 502 kts | 40° |
| 2026-05-05 14:01 | 24.28207 | 55.80154 | 26051 ft | 497 kts | 40° |
| 2026-05-05 14:02 | 24.30723 | 55.82655 | 25393 ft | 492 kts | 40° |
| 2026-05-05 14:02 | 24.33248 | 55.85165 | 24722 ft | 487 kts | 40° |
| 2026-05-05 14:02 | 24.35735 | 55.87641 | 24111 ft | 477 kts | 40° |
| 2026-05-05 14:02 | 24.38148 | 55.90047 | 23386 ft | 461 kts | 40° |
| 2026-05-05 14:03 | 24.40476 | 55.92369 | 22610 ft | 444 kts | 40° |
| 2026-05-05 14:03 | 24.42726 | 55.94615 | 21953 ft | 432 kts | 40° |
| 2026-05-05 14:03 | 24.44946 | 55.96829 | 21317 ft | 430 kts | 40° |
| 2026-05-05 14:03 | 24.47148 | 55.99024 | 20687 ft | 427 kts | 40° |
| 2026-05-05 14:04 | 24.49346 | 56.01216 | 20056 ft | 425 kts | 41° |
| 2026-05-05 14:04 | 24.51519 | 56.03384 | 19442 ft | 422 kts | 40° |
| 2026-05-05 14:04 | 24.53679 | 56.05542 | 18820 ft | 418 kts | 40° |
| 2026-05-05 14:04 | 24.55822 | 56.07689 | 18197 ft | 415 kts | 40° |
| 2026-05-05 14:05 | 24.57962 | 56.09803 | 17519 ft | 411 kts | 38° |
| 2026-05-05 14:05 | 24.60296 | 56.11496 | 16929 ft | 404 kts | 27° |
| 2026-05-05 14:05 | 24.62786 | 56.12760 | 16526 ft | 384 kts | 19° |
| 2026-05-05 14:05 | 24.65321 | 56.13485 | 15715 ft | 372 kts | 7° |
| 2026-05-05 14:06 | 24.67880 | 56.13491 | 14779 ft | 367 kts | 351° |
| 2026-05-05 14:06 | 24.70312 | 56.12698 | 13840 ft | 364 kts | 334° |
| 2026-05-05 14:06 | 24.72400 | 56.11140 | 13043 ft | 365 kts | 315° |
| 2026-05-05 14:06 | 24.74120 | 56.09115 | 12478 ft | 360 kts | 310° |
| 2026-05-05 14:07 | 24.75761 | 56.07040 | 11915 ft | 356 kts | 310° |
| 2026-05-05 14:07 | 24.77377 | 56.04987 | 11353 ft | 353 kts | 309° |
| 2026-05-05 14:07 | 24.78979 | 56.02954 | 10870 ft | 349 kts | 309° |
| 2026-05-05 14:07 | 24.80555 | 56.00962 | 10528 ft | 341 kts | 309° |
| 2026-05-05 14:08 | 24.82099 | 55.99011 | 10064 ft | 336 kts | 309° |
| 2026-05-05 14:08 | 24.83630 | 55.97082 | 9573 ft | 334 kts | 309° |
| 2026-05-05 14:08 | 24.85149 | 55.95169 | 9152 ft | 330 kts | 309° |
| 2026-05-05 14:08 | 24.86661 | 55.93265 | 8864 ft | 330 kts | 309° |
| 2026-05-05 14:09 | 24.88177 | 55.91355 | 8437 ft | 330 kts | 309° |
| 2026-05-05 14:09 | 24.89682 | 55.89461 | 7917 ft | 328 kts | 310° |
| 2026-05-05 14:09 | 24.91177 | 55.87579 | 7433 ft | 325 kts | 310° |
| 2026-05-05 14:09 | 24.92656 | 55.85717 | 6953 ft | 322 kts | 310° |
| 2026-05-05 14:10 | 24.94123 | 55.83868 | 6486 ft | 319 kts | 310° |
| 2026-05-05 14:10 | 24.95578 | 55.82035 | 6006 ft | 316 kts | 310° |
| 2026-05-05 14:10 | 24.96993 | 55.80251 | 5675 ft | 309 kts | 311° |
| 2026-05-05 14:10 | 24.98380 | 55.78502 | 5457 ft | 297 kts | 311° |
| 2026-05-05 14:11 | 24.99730 | 55.76799 | 5180 ft | 287 kts | 311° |
| 2026-05-05 14:11 | 25.01015 | 55.75176 | 4874 ft | 282 kts | 312° |
| 2026-05-05 14:11 | 25.02285 | 55.73571 | 4680 ft | 272 kts | 312° |
| 2026-05-05 14:11 | 25.03505 | 55.72031 | 4481 ft | 262 kts | 313° |
| 2026-05-05 14:12 | 25.04687 | 55.70537 | 4115 ft | 256 kts | 313° |
| 2026-05-05 14:12 | 25.05845 | 55.69072 | 3729 ft | 247 kts | 313° |
| 2026-05-05 14:12 | 25.06961 | 55.67662 | 3449 ft | 241 kts | 313° |
| 2026-05-05 14:12 | 25.08054 | 55.66283 | 3209 ft | 238 kts | 313° |
| 2026-05-05 14:13 | 25.08772 | 55.65377 | 3063 ft | 237 kts | 312° |
| 2026-05-05 14:13 | 25.10189 | 55.63509 | 2996 ft | 238 kts | 307° |
| 2026-05-05 14:13 | 25.10822 | 55.62525 | 2989 ft | 238 kts | 308° |
| 2026-05-05 14:13 | 25.11754 | 55.61010 | 2994 ft | 238 kts | 304° |
| 2026-05-05 14:14 | 25.12620 | 55.59483 | 2985 ft | 228 kts | 302° |
| 2026-05-05 14:14 | 25.13406 | 55.58027 | 2998 ft | 216 kts | 301° |
| 2026-05-05 14:14 | 25.14156 | 55.56600 | 2991 ft | 214 kts | 301° |
| 2026-05-05 14:14 | 25.14906 | 55.55183 | 2999 ft | 215 kts | 302° |
| 2026-05-05 14:15 | 25.15903 | 55.53358 | 2785 ft | 202 kts | 303° |
| 2026-05-05 14:15 | 25.16397 | 55.52478 | 2603 ft | 196 kts | 304° |
| 2026-05-05 14:15 | 25.17094 | 55.51230 | 2338 ft | 186 kts | 305° |
| 2026-05-05 14:15 | 25.17740 | 55.50059 | 2112 ft | 171 kts | 305° |
| 2026-05-05 14:16 | 25.18329 | 55.48991 | 1890 ft | 157 kts | 305° |
| 2026-05-05 14:16 | 25.18874 | 55.48006 | 1703 ft | 143 kts | 305° |
| 2026-05-05 14:16 | 25.19382 | 55.47090 | 1543 ft | 137 kts | 306° |
| 2026-05-05 14:16 | 25.19879 | 55.46198 | 1364 ft | 136 kts | 306° |
| 2026-05-05 14:17 | 25.20370 | 55.45317 | 1211 ft | 137 kts | 308° |
| 2026-05-05 14:17 | 25.20876 | 55.44407 | 1023 ft | 136 kts | 307° |
| 2026-05-05 14:17 | 25.21359 | 55.43532 | 870 ft | 134 kts | 306° |
| 2026-05-05 14:17 | 25.21845 | 55.42660 | 717 ft | 133 kts | 305° |
| 2026-05-05 14:18 | 25.22324 | 55.41786 | 540 ft | 131 kts | 302° |
| 2026-05-05 14:18 | 25.22777 | 55.40943 | 361 ft | 126 kts | 304° |
| 2026-05-05 14:18 | 25.23236 | 55.40114 | 198 ft | 128 kts | 303° |
| 2026-05-05 14:18 | 25.23703 | 55.39271 | 39 ft | 126 kts | 304° |
| 2026-05-05 14:19 | 25.24098 | 55.38572 | 28 ft | 82 kts | 301° |
| 2026-05-05 14:19 | 25.24365 | 55.38091 | 30 ft | 68 kts | 301° |
| 2026-05-05 14:19 | 25.24589 | 55.37689 | 30 ft | 56 kts | 301° |
| 2026-05-05 14:19 | 25.24755 | 55.37362 | 27 ft | 43 kts | 289° |
| 2026-05-05 14:20 | 25.24786 | 55.37112 | 27 ft | 29 kts | 272° |
| 2026-05-05 14:20 | 25.24823 | 55.36904 | 28 ft | 27 kts | 295° |
| 2026-05-05 14:20 | 25.24881 | 55.36709 | 27 ft | 27 kts | 288° |
| 2026-05-05 14:20 | 25.24972 | 55.36523 | 30 ft | 28 kts | 302° |
| 2026-05-05 14:21 | 25.25076 | 55.36341 | 30 ft | 28 kts | 301° |
| 2026-05-05 14:21 | 25.25180 | 55.36153 | 27 ft | 29 kts | 302° |
| 2026-05-05 14:21 | 25.25283 | 55.35973 | 28 ft | 28 kts | 302° |
| 2026-05-05 14:21 | 25.25387 | 55.35787 | 28 ft | 29 kts | 301° |
| 2026-05-05 14:22 | 25.25490 | 55.35603 | 26 ft | 23 kts | 301° |
| 2026-05-05 14:22 | 25.25556 | 55.35486 | 28 ft | 17 kts | 302° |
| 2026-05-05 14:22 | 25.25620 | 55.35374 | 28 ft | 18 kts | 302° |
| 2026-05-05 14:22 | 25.25689 | 55.35251 | 26 ft | 18 kts | 301° |
| 2026-05-05 14:23 | 25.25747 | 55.35146 | 26 ft | 11 kts | 300° |
| 2026-05-05 14:23 | 25.25790 | 55.35064 | 28 ft | 13 kts | 295° |
| 2026-05-05 14:23 | 25.25748 | 55.34991 | 29 ft | 13 kts | 208° |
| 2026-05-05 14:23 | 25.25667 | 55.34937 | 28 ft | 11 kts | 212° |
| 2026-05-05 14:24 | 25.25608 | 55.34899 | 29 ft | 9 kts | 211° |
| 2026-05-05 14:24 | 25.25554 | 55.34863 | 29 ft | 8 kts | 211° |
| 2026-05-05 14:24 | 25.25515 | 55.34836 | 28 ft | 6 kts | 212° |
| 2026-05-05 14:24 | 25.25510 | 55.34806 | 28 ft | 4 kts | 287° |
| 2026-05-05 14:25 | 25.25528 | 55.34775 | 29 ft | 5 kts | 301° |
| 2026-05-05 14:25 | 25.25540 | 55.34753 | 28 ft | 4 kts | 301° |
| 2026-05-05 14:25 | 25.25549 | 55.34738 | 25 ft | 2 kts | 301° |
| 2026-05-05 14:25 | 25.25550 | 55.34737 | 30 ft | 0 kts | 301° |